createdAt,value
2023-02-18T00:00:02.420Z,2.60
2023-02-18T00:02:37.303Z,3.38
2023-02-18T00:05:07.285Z,3.05
2023-02-18T00:07:45.596Z,3.28
2023-02-18T00:10:17.475Z,1.95
2023-02-18T00:12:49.552Z,3.28
2023-02-18T00:15:19.935Z,2.30
2023-02-18T00:17:50.556Z,2.72
2023-02-18T00:20:20.956Z,2.70
2023-02-18T00:22:53.455Z,2.42
2023-02-18T00:25:23.925Z,3.58
2023-02-18T00:27:53.492Z,3.22
2023-02-18T00:30:26.013Z,3.88
2023-02-18T00:32:59.689Z,2.55
2023-02-18T00:35:29.574Z,3.03
2023-02-18T00:38:01.176Z,2.78
2023-02-18T00:40:31.039Z,2.92
2023-02-18T00:43:01.380Z,1.90
2023-02-18T00:45:31.647Z,2.35
2023-02-18T00:48:01.624Z,3.17
2023-02-18T00:50:31.361Z,2.63
2023-02-18T00:53:03.017Z,4.07
2023-02-18T00:55:33.490Z,2.60
2023-02-18T00:58:08.955Z,3.67
2023-02-18T01:00:39.116Z,1.50
2023-02-18T01:03:09.965Z,1.83
2023-02-18T01:05:40.709Z,2.88
2023-02-18T01:08:13.229Z,1.92
2023-02-18T01:10:45.583Z,1.80
2023-02-18T01:13:17.049Z,2.42
2023-02-18T01:15:48.054Z,2.95
2023-02-18T01:18:18.731Z,3.30
2023-02-18T01:20:49.888Z,2.95
2023-02-18T01:23:22.654Z,2.60
2023-02-18T01:25:52.948Z,3.45
2023-02-18T01:28:25.600Z,3.20
2023-02-18T01:30:56.593Z,2.42
2023-02-18T01:33:27.680Z,2.58
2023-02-18T01:35:57.380Z,3.13
2023-02-18T01:38:28.870Z,2.08
2023-02-18T01:40:58.367Z,2.63
2023-02-18T01:43:27.806Z,2.95
2023-02-18T01:46:08.030Z,4.45
2023-02-18T01:48:41.243Z,2.70
2023-02-18T01:51:15.468Z,2.60
2023-02-18T01:53:53.520Z,2.10
2023-02-18T01:56:27.857Z,2.58
2023-02-18T01:59:02.219Z,2.22
2023-02-18T02:01:34.167Z,3.10
2023-02-18T02:04:05.494Z,2.63
2023-02-18T02:06:37.016Z,2.70
2023-02-18T02:09:13.042Z,2.35
2023-02-18T02:12:06.825Z,3.10
2023-02-18T02:14:56.467Z,2.15
2023-02-18T02:17:34.573Z,2.33
2023-02-18T02:20:28.297Z,3.28
2023-02-18T02:23:31.166Z,2.25
2023-02-18T02:26:48.318Z,3.13
2023-02-18T02:29:58.160Z,3.22
2023-02-18T02:33:13.492Z,2.58
2023-02-18T02:36:15.699Z,3.40
2023-02-18T02:38:56.026Z,2.05
2023-02-18T02:41:39.791Z,1.73
2023-02-18T02:44:21.659Z,1.98
2023-02-18T02:47:00.757Z,2.38
2023-02-18T02:49:41.307Z,2.15
2023-02-18T02:52:19.527Z,2.40
2023-02-18T02:54:49.494Z,2.08
2023-02-18T02:57:45.570Z,3.22
2023-02-18T03:00:23.815Z,1.70
2023-02-18T03:03:33.965Z,2.28
2023-02-18T03:06:28.323Z,1.80
2023-02-18T03:09:11.479Z,2.30
2023-02-18T03:11:49.216Z,3.08
2023-02-18T03:14:29.297Z,2.40
2023-02-18T03:17:04.700Z,2.30
2023-02-18T03:19:40.320Z,2.03
2023-02-18T03:22:15.599Z,1.85
2023-02-18T03:24:50.616Z,2.15
2023-02-18T03:27:24.327Z,2.50
2023-02-18T03:29:58.677Z,2.25
2023-02-18T03:32:31.239Z,2.22
2023-02-18T03:35:04.674Z,1.90
2023-02-18T03:37:37.635Z,1.92
2023-02-18T03:40:11.901Z,2.05
2023-02-18T03:42:41.959Z,1.73
2023-02-18T03:45:11.873Z,2.65
2023-02-18T03:47:44.560Z,2.88
2023-02-18T03:50:15.442Z,1.52
2023-02-18T03:52:45.749Z,1.45
2023-02-18T03:55:17.421Z,1.95
2023-02-18T03:57:47.029Z,1.88
2023-02-18T04:00:17.507Z,1.40
2023-02-18T04:02:47.281Z,1.90
2023-02-18T04:05:17.283Z,1.90
2023-02-18T04:07:47.118Z,2.00
2023-02-18T04:10:19.195Z,2.83
2023-02-18T04:12:48.990Z,3.38
2023-02-18T04:15:22.025Z,2.03
2023-02-18T04:17:51.668Z,2.65
2023-02-18T04:20:22.887Z,1.60
2023-02-18T04:22:52.840Z,1.75
2023-02-18T04:25:24.763Z,2.50
2023-02-18T04:27:54.678Z,4.22
2023-02-18T04:30:25.784Z,1.90
2023-02-18T04:32:55.734Z,1.55
2023-02-18T04:35:25.768Z,1.98
2023-02-18T04:37:56.608Z,1.45
2023-02-18T04:40:30.796Z,2.33
2023-02-18T04:43:00.821Z,2.30
2023-02-18T04:45:31.832Z,1.75
2023-02-18T04:48:01.786Z,1.85
2023-02-18T04:50:31.485Z,1.35
2023-02-18T04:53:01.020Z,2.00
2023-02-18T04:55:32.531Z,1.70
2023-02-18T04:58:02.062Z,3.10
2023-02-18T05:00:32.180Z,2.53
2023-02-18T05:03:01.933Z,1.70
2023-02-18T05:05:31.790Z,1.40
2023-02-18T05:08:01.500Z,1.80
2023-02-18T05:10:32.854Z,2.88
2023-02-18T05:13:02.571Z,1.70
2023-02-18T05:15:32.410Z,2.03
2023-02-18T05:18:02.489Z,1.45
2023-02-18T05:20:32.526Z,2.00
2023-02-18T05:23:02.349Z,1.65
2023-02-18T05:25:33.626Z,1.58
2023-02-18T05:28:03.365Z,1.70
2023-02-18T05:30:33.624Z,1.65
2023-02-18T05:33:04.403Z,2.15
2023-02-18T05:35:34.470Z,2.00
2023-02-18T05:38:05.189Z,2.05
2023-02-18T05:40:37.355Z,1.73
2023-02-18T05:43:08.770Z,1.35
2023-02-18T05:45:39.059Z,1.73
2023-02-18T05:48:08.825Z,1.58
2023-02-18T05:50:39.224Z,2.10
2023-02-18T05:53:10.774Z,1.30
2023-02-18T05:55:44.840Z,1.35
2023-02-18T05:58:20.275Z,2.03
2023-02-18T06:00:50.484Z,1.70
2023-02-18T06:03:20.998Z,1.20
2023-02-18T06:05:54.458Z,1.27
2023-02-18T06:08:24.673Z,2.38
2023-02-18T06:10:56.199Z,2.00
2023-02-18T06:13:26.214Z,1.48
2023-02-18T06:15:56.883Z,1.65
2023-02-18T06:18:26.730Z,1.23
2023-02-18T06:20:56.858Z,1.80
2023-02-18T06:23:26.792Z,1.23
2023-02-18T06:25:58.869Z,1.65
2023-02-18T06:28:28.661Z,1.30
2023-02-18T06:30:58.417Z,1.60
2023-02-18T06:33:28.427Z,2.22
2023-02-18T06:35:59.865Z,1.75
2023-02-18T06:38:30.274Z,1.20
2023-02-18T06:41:01.884Z,1.63
2023-02-18T06:43:31.532Z,1.35
2023-02-18T06:46:01.530Z,1.60
2023-02-18T06:48:31.266Z,1.80
2023-02-18T06:51:01.502Z,2.10
2023-02-18T06:53:31.169Z,1.20
2023-02-18T06:56:02.487Z,1.02
2023-02-18T06:58:32.441Z,1.40
2023-02-18T07:01:02.579Z,3.90
2023-02-18T07:03:32.687Z,1.52
2023-02-18T07:06:02.599Z,1.98
2023-02-18T07:08:33.594Z,1.45
2023-02-18T07:11:05.348Z,1.63
2023-02-18T07:13:35.135Z,1.80
2023-02-18T07:16:05.291Z,2.05
2023-02-18T07:18:36.072Z,1.50
2023-02-18T07:21:05.968Z,1.40
2023-02-18T07:23:35.772Z,1.58
2023-02-18T07:26:09.805Z,2.05
2023-02-18T07:28:40.385Z,1.35
2023-02-18T07:31:11.272Z,1.88
2023-02-18T07:33:41.107Z,1.20
2023-02-18T07:36:14.318Z,1.13
2023-02-18T07:38:43.953Z,1.13
2023-02-18T07:41:20.682Z,1.25
2023-02-18T07:43:50.651Z,1.98
2023-02-18T07:46:20.860Z,1.45
2023-02-18T07:48:50.849Z,1.48
2023-02-18T07:51:20.684Z,1.42
2023-02-18T07:53:50.715Z,1.20
2023-02-18T07:56:22.212Z,1.80
2023-02-18T07:58:52.346Z,1.30
2023-02-18T08:01:22.361Z,1.30
2023-02-18T08:03:52.233Z,1.40
2023-02-18T08:06:26.850Z,1.27
2023-02-18T08:08:56.571Z,1.55
2023-02-18T08:11:28.181Z,3.55
2023-02-18T08:13:57.968Z,2.85
2023-02-18T08:16:28.221Z,2.20
2023-02-18T08:18:58.615Z,1.60
2023-02-18T08:21:28.884Z,1.60
2023-02-18T08:24:00.362Z,1.50
2023-02-18T08:26:32.268Z,2.60
2023-02-18T08:29:02.611Z,1.35
2023-02-18T08:31:33.297Z,1.55
2023-02-18T08:34:03.993Z,1.10
2023-02-18T08:36:33.716Z,1.13
2023-02-18T08:39:03.427Z,1.50
2023-02-18T08:41:34.632Z,1.20
2023-02-18T08:44:04.151Z,1.33
2023-02-18T08:46:35.870Z,1.70
2023-02-18T08:49:07.520Z,1.30
2023-02-18T08:51:37.943Z,1.50
2023-02-18T08:54:07.722Z,1.48
2023-02-18T08:56:39.894Z,1.45
2023-02-18T08:59:09.792Z,1.58
2023-02-18T09:01:39.487Z,1.80
2023-02-18T09:04:09.377Z,1.75
2023-02-18T09:06:40.415Z,2.63
2023-02-18T09:09:13.422Z,1.40
2023-02-18T09:11:45.346Z,3.13
2023-02-18T09:14:15.550Z,1.65
2023-02-18T09:16:45.359Z,1.33
2023-02-18T09:19:14.914Z,2.00
2023-02-18T09:21:44.597Z,2.53
2023-02-18T09:24:14.012Z,1.33
2023-02-18T09:26:45.676Z,2.22
2023-02-18T09:29:15.420Z,3.70
2023-02-18T09:31:45.511Z,1.83
2023-02-18T09:34:15.049Z,1.77
2023-02-18T09:36:44.749Z,1.45
2023-02-18T09:39:18.275Z,2.30
2023-02-18T09:41:51.941Z,2.63
2023-02-18T09:44:26.675Z,1.60
2023-02-18T09:47:01.126Z,2.50
2023-02-18T09:49:34.586Z,1.75
2023-02-18T09:52:09.020Z,2.47
2023-02-18T09:54:40.653Z,1.83
2023-02-18T09:57:23.796Z,1.80
2023-02-18T09:59:59.142Z,1.85
2023-02-18T10:02:29.669Z,2.03
2023-02-18T10:04:59.915Z,2.53
2023-02-18T10:07:32.902Z,2.40
2023-02-18T10:10:14.037Z,1.90
2023-02-18T10:12:45.767Z,1.95
2023-02-18T10:15:30.013Z,3.00
2023-02-18T10:18:00.684Z,2.00
2023-02-18T10:20:31.930Z,3.03
2023-02-18T10:23:06.531Z,2.50
2023-02-18T10:25:43.884Z,2.05
2023-02-18T10:28:20.459Z,2.10
2023-02-18T10:30:58.173Z,1.60
2023-02-18T10:33:36.644Z,2.35
2023-02-18T10:36:25.408Z,1.88
2023-02-18T10:39:20.540Z,2.25
2023-02-18T10:42:02.707Z,2.20
2023-02-18T10:44:44.828Z,3.28
2023-02-18T10:47:26.829Z,2.20
2023-02-18T10:50:01.237Z,2.30
2023-02-18T10:52:35.204Z,2.28
2023-02-18T10:55:06.490Z,2.10
2023-02-18T10:57:37.149Z,2.25
2023-02-18T11:00:20.769Z,2.45
2023-02-18T11:03:07.464Z,2.67
2023-02-18T11:05:38.656Z,3.72
2023-02-18T11:08:12.439Z,3.55
2023-02-18T11:10:45.330Z,3.00
2023-02-18T11:13:18.734Z,2.80
2023-02-18T11:15:59.996Z,3.03
2023-02-18T11:18:39.687Z,2.05
2023-02-18T11:21:30.502Z,2.08
2023-02-18T11:24:10.328Z,4.13
2023-02-18T11:26:41.979Z,3.35
2023-02-18T11:29:21.095Z,2.15
2023-02-18T11:31:55.426Z,1.80
2023-02-18T11:34:29.052Z,2.95
2023-02-18T11:37:09.805Z,2.10
2023-02-18T11:39:44.462Z,2.75
2023-02-18T11:42:18.674Z,2.70
2023-02-18T11:45:08.069Z,4.15
2023-02-18T11:47:42.591Z,2.40
2023-02-18T11:50:25.275Z,1.80
2023-02-18T11:53:01.123Z,2.25
2023-02-18T11:55:34.321Z,2.35
2023-02-18T11:58:06.815Z,2.35
2023-02-18T12:00:43.819Z,2.45
2023-02-18T12:03:29.609Z,2.10
2023-02-18T12:06:06.209Z,2.17
2023-02-18T12:08:44.469Z,2.03
2023-02-18T12:11:24.424Z,3.13
2023-02-18T12:13:58.162Z,3.92
2023-02-18T12:16:38.314Z,2.97
2023-02-18T12:19:38.959Z,4.07
2023-02-18T12:22:21.530Z,3.38
2023-02-18T12:25:21.252Z,3.00
2023-02-18T12:27:59.158Z,2.88
2023-02-18T12:30:59.246Z,3.30
2023-02-18T12:33:41.052Z,3.05
2023-02-18T12:36:21.816Z,3.10
2023-02-18T12:39:12.660Z,3.13
2023-02-18T12:41:59.720Z,3.25
2023-02-18T12:44:45.956Z,3.58
2023-02-18T12:48:02.561Z,4.22
2023-02-18T12:51:03.247Z,5.70
2023-02-18T12:53:56.679Z,4.30
2023-02-18T12:56:56.314Z,3.88
2023-02-18T13:00:02.350Z,4.97
2023-02-18T13:02:55.678Z,4.47
2023-02-18T13:05:34.705Z,4.82
2023-02-18T13:08:31.963Z,3.43
2023-02-18T13:11:23.026Z,4.17
2023-02-18T13:14:06.137Z,3.33
2023-02-18T13:16:39.478Z,3.70
2023-02-18T13:19:26.737Z,3.13
2023-02-18T13:22:01.946Z,3.40
2023-02-18T13:24:41.263Z,3.10
2023-02-18T13:27:25.614Z,4.17
2023-02-18T13:30:08.342Z,3.90
2023-02-18T13:32:44.037Z,2.83
2023-02-18T13:35:34.496Z,1.80
2023-02-18T13:38:28.324Z,3.97
2023-02-18T13:41:01.275Z,2.80
2023-02-18T13:43:42.988Z,2.47
2023-02-18T13:46:20.300Z,2.67
2023-02-18T13:48:55.382Z,2.70
2023-02-18T13:51:35.765Z,1.87
2023-02-18T13:54:29.131Z,2.03
2023-02-18T13:57:05.463Z,1.30
2023-02-18T13:59:43.638Z,1.57
2023-02-18T14:02:37.001Z,0.90
2023-02-18T14:05:28.104Z,1.10
2023-02-18T14:08:19.005Z,1.50
2023-02-18T14:11:45.094Z,1.50
2023-02-18T14:14:45.303Z,1.07
2023-02-18T14:17:31.990Z,1.40
2023-02-18T14:20:39.991Z,1.57
2023-02-18T14:23:29.823Z,1.83
2023-02-18T14:26:09.639Z,1.47
2023-02-18T14:28:46.584Z,1.20
2023-02-18T14:31:44.495Z,1.57
2023-02-18T14:34:38.375Z,1.17
2023-02-18T14:37:39.843Z,1.67
2023-02-18T14:40:35.370Z,1.93
2023-02-18T14:43:12.896Z,1.33
2023-02-18T14:46:11.087Z,1.60
2023-02-18T14:49:04.822Z,1.53
2023-02-18T14:51:37.817Z,1.67
2023-02-18T14:54:13.478Z,1.30
2023-02-18T14:56:55.031Z,1.47
2023-02-18T14:59:28.828Z,1.30
2023-02-18T15:02:00.427Z,1.07
2023-02-18T15:04:32.586Z,2.03
2023-02-18T15:07:28.824Z,1.80
2023-02-18T15:10:01.504Z,1.50
2023-02-18T15:12:32.051Z,1.67
2023-02-18T15:15:06.381Z,1.40
2023-02-18T15:17:36.480Z,1.80
2023-02-18T15:20:11.988Z,1.00
2023-02-18T15:22:42.899Z,0.87
2023-02-18T15:25:16.687Z,1.23
2023-02-18T15:27:47.977Z,1.30
2023-02-18T15:30:27.560Z,1.13
2023-02-18T15:33:04.296Z,1.30
2023-02-18T15:35:36.793Z,1.00
2023-02-18T15:38:07.052Z,1.27
2023-02-18T15:40:41.668Z,0.93
2023-02-18T15:43:18.899Z,1.23
2023-02-18T15:45:58.769Z,0.97
2023-02-18T15:48:38.450Z,0.97
2023-02-18T15:51:18.141Z,0.93
2023-02-18T15:53:52.434Z,0.90
2023-02-18T15:56:36.510Z,0.90
2023-02-18T15:59:28.564Z,0.90
2023-02-18T16:02:05.978Z,0.90
2023-02-18T16:04:46.091Z,0.80
2023-02-18T16:07:31.242Z,0.70
2023-02-18T16:10:19.130Z,0.73
2023-02-18T16:12:57.308Z,0.70
2023-02-18T16:15:36.322Z,0.70
2023-02-18T16:18:07.950Z,0.80
2023-02-18T16:20:42.300Z,0.90
2023-02-18T16:23:17.095Z,0.90
2023-02-18T16:25:51.463Z,0.87
2023-02-18T16:28:28.150Z,0.73
2023-02-18T16:31:03.274Z,0.80
2023-02-18T16:33:34.889Z,1.50
2023-02-18T16:36:05.371Z,1.47
2023-02-18T16:38:43.820Z,1.70
2023-02-18T16:41:17.125Z,1.50
2023-02-18T16:43:50.962Z,1.25
2023-02-18T16:46:25.272Z,1.30
2023-02-18T16:49:21.213Z,0.90
2023-02-18T16:51:52.445Z,1.00
2023-02-18T16:54:27.083Z,1.60
2023-02-18T16:57:00.199Z,1.60
2023-02-18T16:59:31.054Z,1.40
2023-02-18T17:02:02.214Z,1.40
2023-02-18T17:04:35.416Z,1.50
2023-02-18T17:07:08.466Z,1.50
2023-02-18T17:09:39.893Z,1.60
2023-02-18T17:12:10.986Z,1.20
2023-02-18T17:14:41.290Z,1.52
2023-02-18T17:17:15.714Z,1.50
2023-02-18T17:19:46.268Z,1.40
2023-02-18T17:22:17.316Z,1.35
2023-02-18T17:24:56.221Z,1.73
2023-02-18T17:27:26.553Z,1.25
2023-02-18T17:29:56.447Z,1.30
2023-02-18T17:32:26.492Z,2.70
2023-02-18T17:34:57.391Z,1.50
2023-02-18T17:37:27.631Z,1.25
2023-02-18T17:40:00.928Z,1.13
2023-02-18T17:42:36.128Z,1.10
2023-02-18T17:45:20.894Z,1.58
2023-02-18T17:47:52.303Z,2.60
2023-02-18T17:50:23.047Z,1.10
2023-02-18T17:52:53.986Z,1.70
2023-02-18T17:55:31.028Z,1.08
2023-02-18T17:58:02.944Z,1.40
2023-02-18T18:01:09.131Z,1.30
2023-02-18T18:03:41.422Z,1.00
2023-02-18T18:06:22.489Z,1.20
2023-02-18T18:08:53.922Z,1.45
2023-02-18T18:11:27.786Z,1.50
2023-02-18T18:14:00.138Z,1.73
2023-02-18T18:17:01.080Z,1.35
2023-02-18T18:19:32.587Z,1.23
2023-02-18T18:22:02.943Z,1.17
2023-02-18T18:24:33.359Z,1.65
2023-02-18T18:27:09.076Z,1.20
2023-02-18T18:29:42.430Z,1.33
2023-02-18T18:32:12.738Z,1.70
2023-02-18T18:34:44.508Z,2.40
2023-02-18T18:37:20.079Z,1.92
2023-02-18T18:39:53.672Z,1.50
2023-02-18T18:42:27.352Z,1.95
2023-02-18T18:45:00.815Z,1.70
2023-02-18T18:47:31.560Z,1.35
2023-02-18T18:50:10.147Z,1.98
2023-02-18T18:52:44.627Z,1.90
2023-02-18T18:55:25.027Z,2.33
2023-02-18T18:58:01.165Z,1.60
2023-02-18T19:00:34.227Z,1.85
2023-02-18T19:03:08.476Z,1.80
2023-02-18T19:05:40.240Z,1.88
2023-02-18T19:08:11.694Z,2.38
2023-02-18T19:10:44.548Z,2.70
2023-02-18T19:13:22.490Z,2.80
2023-02-18T19:15:55.144Z,2.15
2023-02-18T19:18:25.163Z,2.55
2023-02-18T19:20:56.201Z,1.70
2023-02-18T19:23:26.102Z,1.90
2023-02-18T19:25:56.012Z,1.65
2023-02-18T19:28:32.171Z,2.05
2023-02-18T19:31:01.674Z,1.70
2023-02-18T19:33:31.123Z,2.20
2023-02-18T19:36:00.639Z,1.90
2023-02-18T19:38:30.061Z,2.15
2023-02-18T19:40:59.485Z,1.98
2023-02-18T19:43:30.372Z,2.45
2023-02-18T19:46:00.223Z,1.80
2023-02-18T19:48:30.215Z,1.67
2023-02-18T19:51:00.096Z,3.58
2023-02-18T19:53:29.644Z,2.05
2023-02-18T19:56:02.006Z,1.67
2023-02-18T19:58:33.329Z,1.60
2023-02-18T20:01:02.730Z,2.10
2023-02-18T20:03:32.079Z,2.60
2023-02-18T20:06:01.664Z,1.55
2023-02-18T20:08:31.675Z,2.13
2023-02-18T20:11:01.627Z,1.73
2023-02-18T20:13:32.588Z,2.65
2023-02-18T20:16:02.010Z,3.78
2023-02-18T20:18:31.368Z,2.08
2023-02-18T20:21:00.785Z,2.13
2023-02-18T20:23:30.199Z,1.95
2023-02-18T20:26:02.849Z,2.45
2023-02-18T20:28:33.820Z,2.80
2023-02-18T20:31:07.556Z,2.80
2023-02-18T20:33:37.233Z,2.30
2023-02-18T20:36:08.698Z,2.65
2023-02-18T20:38:40.997Z,2.40
2023-02-18T20:41:14.512Z,2.25
2023-02-18T20:43:46.019Z,2.90
2023-02-18T20:46:17.420Z,2.45
2023-02-18T20:48:46.972Z,2.45
2023-02-18T20:51:18.140Z,2.85
2023-02-18T20:53:50.897Z,2.35
2023-02-18T20:56:21.982Z,2.22
2023-02-18T20:58:53.285Z,2.20
2023-02-18T21:01:24.257Z,3.10
2023-02-18T21:03:53.999Z,2.22
2023-02-18T21:06:26.120Z,2.80
2023-02-18T21:08:56.265Z,4.45
2023-02-18T21:11:28.015Z,3.75
2023-02-18T21:13:59.682Z,4.53
2023-02-18T21:16:32.602Z,2.38
2023-02-18T21:19:02.220Z,3.75
2023-02-18T21:21:31.703Z,4.00
2023-02-18T21:24:01.165Z,2.80
2023-02-18T21:26:31.194Z,2.80
2023-02-18T21:29:08.156Z,2.38
2023-02-18T21:31:39.642Z,3.60
2023-02-18T21:34:12.138Z,3.42
2023-02-18T21:36:41.649Z,3.25
2023-02-18T21:39:12.139Z,2.03
2023-02-18T21:41:42.962Z,3.80
2023-02-18T21:44:14.343Z,2.70
2023-02-18T21:46:45.308Z,2.55
2023-02-18T21:49:15.993Z,2.88
2023-02-18T21:52:01.131Z,2.42
2023-02-18T21:54:32.621Z,3.00
2023-02-18T21:57:04.167Z,2.28
2023-02-18T21:59:37.203Z,3.30
2023-02-18T22:02:10.208Z,4.18
2023-02-18T22:04:40.259Z,3.05
2023-02-18T22:07:10.492Z,2.95
2023-02-18T22:09:41.103Z,2.80
2023-02-18T22:12:12.132Z,3.60
2023-02-18T22:14:44.924Z,3.55
2023-02-18T22:17:16.290Z,4.65
2023-02-18T22:19:46.543Z,1.95
2023-02-18T22:22:16.488Z,2.15
2023-02-18T22:24:47.084Z,1.60
2023-02-18T22:27:17.466Z,2.92
2023-02-18T22:29:50.750Z,2.75
2023-02-18T22:32:20.580Z,2.35
2023-02-18T22:34:52.130Z,1.90
2023-02-18T22:37:22.816Z,2.67
2023-02-18T22:39:55.860Z,2.08
2023-02-18T22:42:30.620Z,2.20
2023-02-18T22:45:09.078Z,2.30
2023-02-18T22:47:40.132Z,2.75
2023-02-18T22:50:11.755Z,2.40
2023-02-18T22:52:42.979Z,2.60
2023-02-18T22:55:15.335Z,2.05
2023-02-18T22:57:53.381Z,2.10
2023-02-18T23:00:28.122Z,1.80
2023-02-18T23:02:58.708Z,2.40
2023-02-18T23:05:36.580Z,3.15
2023-02-18T23:08:08.006Z,2.00
2023-02-18T23:10:38.756Z,2.40
2023-02-18T23:13:08.918Z,2.45
2023-02-18T23:15:42.240Z,1.90
2023-02-18T23:18:12.716Z,2.13
2023-02-18T23:21:22.701Z,3.50
2023-02-18T23:23:55.829Z,2.05
2023-02-18T23:26:28.942Z,2.72
2023-02-18T23:29:00.186Z,2.50
2023-02-18T23:31:45.552Z,1.80
2023-02-18T23:34:19.574Z,3.08
2023-02-18T23:36:50.511Z,3.13
2023-02-18T23:39:21.862Z,2.67
2023-02-18T23:41:51.969Z,2.35
2023-02-18T23:44:24.144Z,2.67
2023-02-18T23:47:00.625Z,2.75
2023-02-18T23:49:30.885Z,2.00
2023-02-18T23:52:00.442Z,3.17
2023-02-18T23:54:30.171Z,2.90
2023-02-18T23:56:59.697Z,2.75
2023-02-18T23:59:29.639Z,3.05
